Time;durP1;ratioP1;P1;durP2;ratioP2;P2;SDS_P1;SDS_P2;PMS_P1;PMS_P2;Temp;Humidity;BMP_temperature;BMP_pressure;BME280_temperature;BME280_humidity;BME280_pressure;Samples;Min_cycle;Max_cycle;Signal;HPM_P1;HPM_P2
2023/05/01 00:01:33;;;;;;;8.55;3.40;;;;;;;11.85;86.26;101755.59;5021348;28;20029;-86
2023/05/01 00:03:58;;;;;;;4.45;3.20;;;;;;;11.80;86.09;101753.06;5036181;28;20033;-86
2023/05/01 00:06:24;;;;;;;4.10;3.25;;;;;;;11.80;86.17;101736.22;5025930;28;20028;-87
2023/05/01 00:08:49;;;;;;;7.25;3.50;;;;;;;11.73;85.63;101744.47;5026868;28;20090;-86
2023/05/01 00:11:14;;;;;;;4.80;2.72;;;;;;;11.71;85.90;101735.63;5026093;28;20033;-87
2023/05/01 00:13:40;;;;;;;9.90;3.70;;;;;;;11.74;86.00;101741.31;5014467;28;20033;-83
2023/05/01 00:16:10;;;;;;;8.18;3.65;;;;;;;11.78;86.08;101735.78;5029835;28;20025;-83
2023/05/01 00:18:35;;;;;;;4.25;2.97;;;;;;;11.68;86.08;101730.72;5024677;28;20507;-82
2023/05/01 00:21:02;;;;;;;6.82;3.03;;;;;;;11.66;85.71;101722.69;5037352;28;20048;-83
2023/05/01 00:23:27;;;;;;;6.28;3.60;;;;;;;11.62;85.88;101727.41;5016509;28;20092;-83
2023/05/01 00:25:52;;;;;;;6.07;3.53;;;;;;;11.51;86.04;101715.94;5037020;28;20162;-83
2023/05/01 00:28:18;;;;;;;4.72;3.33;;;;;;;11.63;86.23;101729.00;5043573;28;20448;-83
2023/05/01 00:30:46;;;;;;;3.63;2.95;;;;;;;11.51;nan;101715.94;5023943;28;20028;-83
2023/05/01 00:33:12;;;;;;;5.05;3.42;;;;;;;11.44;86.26;101718.56;5036530;28;20032;-83
2023/05/01 00:35:37;;;;;;;6.75;3.42;;;;;;;11.42;86.51;101712.50;5011325;28;20036;-83
2023/05/01 00:38:03;;;;;;;5.55;3.70;;;;;;;11.39;87.17;101718.84;5036630;28;20717;-83
2023/05/01 00:40:28;;;;;;;5.72;3.38;;;;;;;11.30;86.81;101709.78;5020142;28;20041;-83
2023/05/01 00:42:54;;;;;;;4.60;3.53;;;;;;;11.29;87.27;101708.97;5020196;28;20024;-83
2023/05/01 00:45:19;;;;;;;5.35;3.15;;;;;;;11.38;86.63;101703.19;5029794;28;20942;-83
2023/05/01 00:47:45;;;;;;;5.57;3.33;;;;;;;11.35;86.79;101712.34;5029181;28;20016;-83
2023/05/01 00:50:12;;;;;;;4.75;3.13;;;;;;;11.31;87.00;101698.22;5024098;28;20036;-83
2023/05/01 00:52:38;;;;;;;6.38;3.55;;;;;;;11.26;87.01;101692.06;5020367;28;20115;-83
2023/05/01 00:55:04;;;;;;;5.90;3.17;;;;;;;11.26;86.83;101703.28;5010753;28;20574;-83
2023/05/01 00:57:31;;;;;;;7.80;3.28;;;;;;;11.19;87.46;101698.31;5042999;28;20061;-82
2023/05/01 00:59:57;;;;;;;8.32;4.05;;;;;;;11.26;87.39;101686.47;5023573;28;20033;-83
2023/05/01 01:02:22;;;;;;;6.25;3.00;;;;;;;11.11;87.48;101679.69;5042164;28;20397;-82
2023/05/01 01:04:48;;;;;;;5.10;3.72;;;;;;;11.10;87.65;101683.69;5027709;28;20394;-83
2023/05/01 01:07:20;;;;;;;10.73;3.38;;;;;;;11.14;88.33;101679.78;5028303;28;20117;-83
2023/05/01 01:10:11;;;;;;;6.50;4.07;;;;;;;11.05;87.86;101673.56;5043287;28;20075;-83
2023/05/01 01:12:56;;;;;;;4.85;3.05;;;;;;;11.08;88.12;101669.22;5021865;28;20504;-84
2023/05/01 01:15:46;;;;;;;3.75;3.40;;;;;;;10.98;89.45;101671.41;5026150;28;20025;-84
2023/05/01 01:18:16;;;;;;;7.63;3.70;;;;;;;11.02;89.14;101663.06;5018919;28;20037;-84
2023/05/01 01:21:14;;;;;;;8.07;3.80;;;;;;;10.83;89.17;101658.19;5039553;28;20082;-84
2023/05/01 01:24:12;;;;;;;5.97;3.97;;;;;;;10.89;89.60;101656.75;5034776;28;20025;-83
2023/05/01 01:26:52;;;;;;;5.28;3.85;;;;;;;10.90;90.13;101660.34;5023816;28;20463;-84
2023/05/01 01:29:50;;;;;;;5.95;3.55;;;;;;;10.86;90.08;101656.69;5039016;28;20032;-84
2023/05/01 01:32:30;;;;;;;6.65;4.40;;;;;;;10.75;90.00;101648.81;5024987;28;20068;-84
2023/05/01 01:35:05;;;;;;;7.22;4.30;;;;;;;10.81;90.12;101648.53;5015354;28;20075;-84
2023/05/01 01:37:47;;;;;;;5.15;3.28;;;;;;;10.65;90.24;101632.53;5026879;28;20029;-84
2023/05/01 01:40:17;;;;;;;7.63;4.30;;;;;;;10.51;90.79;101623.75;5036111;28;20103;-84
2023/05/01 01:42:48;;;;;;;7.25;4.10;;;;;;;10.53;90.33;101621.41;5023119;28;20565;-84
2023/05/01 01:45:22;;;;;;;4.13;3.47;;;;;;;10.50;91.04;101630.56;5018288;28;20036;-84
2023/05/01 01:47:49;;;;;;;5.65;3.30;;;;;;;10.60;90.11;101630.00;5020813;28;20102;-84
2023/05/01 01:50:18;;;;;;;4.93;3.78;;;;;;;10.57;89.85;101622.31;5020354;28;20020;-84
2023/05/01 01:52:48;;;;;;;6.60;4.35;;;;;;;10.64;89.56;101622.50;5031245;28;20025;-84
2023/05/01 01:55:15;;;;;;;8.43;3.70;;;;;;;10.58;89.75;101621.13;5022837;28;20037;-84
2023/05/01 01:57:43;;;;;;;7.10;3.63;;;;;;;10.51;90.20;101606.97;5012025;28;20032;-84
2023/05/01 02:00:10;;;;;;;6.90;4.15;;;;;;;10.38;90.27;101604.25;5027865;28;20111;-84
2023/05/01 02:02:38;;;;;;;7.07;4.75;;;;;;;10.46;90.51;101604.44;5037584;28;20028;-82
2023/05/01 02:05:06;;;;;;;7.68;4.35;;;;;;;10.46;90.50;101598.84;5017865;28;20590;-83
2023/05/01 02:07:36;;;;;;;8.63;4.60;;;;;;;10.29;90.18;101595.22;5019746;28;20060;-83
2023/05/01 02:10:04;;;;;;;7.00;4.05;;;;;;;10.37;89.97;101596.19;5026978;28;20083;-83
2023/05/01 02:12:31;;;;;;;5.93;4.40;;;;;;;10.33;89.65;101584.94;5019594;28;20206;-83
2023/05/01 02:14:58;;;;;;;10.25;4.18;;;;;;;10.36;90.00;101584.19;5019155;28;20017;-83
2023/05/01 02:17:26;;;;;;;6.20;3.90;;;;;;;10.35;89.54;101581.75;5024369;28;20091;-83
2023/05/01 02:19:53;;;;;;;7.03;3.97;;;;;;;10.31;89.65;101581.69;5017000;28;20037;-83
2023/05/01 02:22:20;;;;;;;7.50;4.45;;;;;;;10.24;90.35;101566.63;5017134;28;20041;-83
2023/05/01 02:24:47;;;;;;;9.13;4.00;;;;;;;10.29;90.25;101572.00;5026546;28;20032;-83
2023/05/01 02:27:20;;;;;;;5.65;3.95;;;;;;;10.14;90.40;101574.41;5024250;28;21033;-83
2023/05/01 02:29:45;;;;;;;6.97;4.22;;;;;;;10.15;91.16;101570.41;5018454;28;20112;-83
2023/05/01 02:32:11;;;;;;;7.05;4.38;;;;;;;10.21;90.94;101568.19;5022656;28;20124;-83
2023/05/01 02:34:36;;;;;;;8.40;4.40;;;;;;;10.10;91.14;101555.91;5017670;28;20048;-83
2023/05/01 02:37:05;;;;;;;7.60;4.03;;;;;;;10.10;91.71;101553.09;5036027;28;20159;-83
2023/05/01 02:39:31;;;;;;;9.25;4.50;;;;;;;10.05;91.36;101545.75;5022263;28;20481;-83
2023/05/01 02:42:00;;;;;;;12.98;5.93;;;;;;;10.13;91.36;101546.78;5044776;28;20033;-87
2023/05/01 02:44:27;;;;;;;6.68;4.85;;;;;;;10.05;91.70;101544.94;5020740;28;20083;-86
2023/05/01 02:46:54;;;;;;;10.43;5.38;;;;;;;10.05;91.66;101540.16;5040586;28;20037;-87
2023/05/01 02:49:20;;;;;;;10.93;5.40;;;;;;;9.93;92.37;101524.28;5013225;28;20452;-86
2023/05/01 02:51:46;;;;;;;11.30;5.45;;;;;;;10.02;92.00;101540.91;5020045;28;20025;-87
2023/05/01 02:54:12;;;;;;;10.07;5.45;;;;;;;10.02;91.90;101535.28;5021112;28;20021;-87
2023/05/01 02:56:38;;;;;;;10.20;6.00;;;;;;;10.04;91.63;101526.56;5019189;28;20084;-87
2023/05/01 02:59:03;;;;;;;10.57;5.82;;;;;;;10.00;91.94;101525.66;5018156;28;20548;-87
2023/05/01 03:01:29;;;;;;;12.25;5.97;;;;;;;9.92;92.55;101519.84;5014549;28;20034;-86
2023/05/01 03:03:54;;;;;;;12.48;6.63;;;;;;;9.94;92.04;101517.50;5024324;28;20024;-86
2023/05/01 03:06:19;;;;;;;14.13;5.93;;;;;;;9.85;92.30;101496.47;5034528;28;20587;-87
2023/05/01 03:08:46;;;;;;;12.07;7.32;;;;;;;9.96;91.94;101520.75;5030342;28;20064;-86
2023/05/01 03:11:12;;;;;;;8.13;5.07;;;;;;;9.66;92.97;101511.13;5037382;28;20031;-87
2023/05/01 03:13:37;;;;;;;11.23;5.93;;;;;;;9.82;92.44;101514.75;5045512;28;20041;-87
2023/05/01 03:16:03;;;;;;;10.30;5.63;;;;;;;9.90;92.23;101513.00;5050153;28;20029;-86
2023/05/01 03:18:29;;;;;;;10.18;6.60;;;;;;;9.75;92.84;101509.00;5032610;28;20025;-87
2023/05/01 03:20:57;;;;;;;12.52;5.88;;;;;;;9.75;92.67;101509.00;5032445;28;20476;-87
2023/05/01 03:23:23;;;;;;;10.90;6.22;;;;;;;9.70;92.42;101512.06;5033942;28;20020;-87
2023/05/01 03:25:49;;;;;;;9.65;6.43;;;;;;;9.75;92.87;101500.59;5029848;28;20045;-86
2023/05/01 03:28:15;;;;;;;14.35;7.10;;;;;;;9.59;93.67;101496.94;5034267;28;20060;-86
2023/05/01 03:30:40;;;;;;;12.63;7.05;;;;;;;9.58;92.78;101493.34;5049668;28;20246;-87
2023/05/01 03:33:06;;;;;;;10.90;6.53;;;;;;;9.66;92.76;101488.78;5033180;28;20033;-86
2023/05/01 03:35:31;;;;;;;13.65;7.50;;;;;;;9.54;93.43;101482.06;5034808;28;20028;-86
2023/05/01 03:37:56;;;;;;;10.55;6.55;;;;;;;9.53;93.67;101471.25;5035792;28;20040;-87
2023/05/01 03:40:22;;;;;;;10.95;6.18;;;;;;;9.69;93.19;101488.06;5036387;28;20512;-87
2023/05/01 03:42:47;;;;;;;9.25;6.20;;;;;;;9.60;92.88;101484.59;5034861;28;20048;-86
2023/05/01 03:45:13;;;;;;;11.85;6.25;;;;;;;9.51;93.83;101482.78;5032014;28;20041;-87
2023/05/01 03:47:38;;;;;;;11.18;6.50;;;;;;;9.36;93.97;101466.78;5028137;28;20017;-86
2023/05/01 03:50:04;;;;;;;14.77;6.85;;;;;;;9.38;93.41;101463.63;5031123;28;20541;-86
2023/05/01 03:52:33;;;;;;;8.88;6.57;;;;;;;9.36;93.91;101464.00;5040460;28;20386;-87
2023/05/01 03:54:58;;;;;;;11.23;6.75;;;;;;;9.52;93.24;101461.22;5042121;28;20492;-86
2023/05/01 03:57:23;;;;;;;12.38;6.68;;;;;;;9.29;94.60;101460.97;5038783;28;20087;-86
2023/05/01 03:59:49;;;;;;;9.13;5.63;;;;;;;9.42;93.92;101473.72;5039500;28;20082;-86
2023/05/01 04:02:15;;;;;;;14.30;6.93;;;;;;;9.46;93.33;101463.47;5035954;28;20025;-87
2023/05/01 04:04:40;;;;;;;12.77;6.53;;;;;;;9.28;95.28;101462.16;5031919;28;20695;-87
2023/05/01 04:07:05;;;;;;;15.02;7.15;;;;;;;9.35;94.88;101463.16;5039307;28;20070;-86
2023/05/01 04:09:31;;;;;;;10.75;6.65;;;;;;;9.50;94.11;101461.56;5036696;28;20052;-86
2023/05/01 04:11:56;;;;;;;9.13;6.55;;;;;;;9.51;94.03;101452.03;5019967;28;20483;-86
2023/05/01 04:14:22;;;;;;;10.98;5.95;;;;;;;9.52;93.40;101456.44;5014398;28;20543;-87
2023/05/01 04:16:48;;;;;;;12.18;7.07;;;;;;;9.33;94.66;101456.31;5018935;28;20016;-87
2023/05/01 04:19:13;;;;;;;11.18;6.50;;;;;;;9.29;95.35;101453.41;5033821;28;20033;-86
2023/05/01 04:21:39;;;;;;;11.88;6.95;;;;;;;9.20;95.24;101443.56;5034170;28;20033;-86
2023/05/01 04:24:04;;;;;;;14.32;7.07;;;;;;;9.29;95.30;101442.22;5023189;28;20024;-86
2023/05/01 04:26:30;;;;;;;8.77;6.43;;;;;;;9.27;95.95;101450.16;5015800;28;20029;-86
2023/05/01 04:28:55;;;;;;;9.35;6.30;;;;;;;9.32;94.70;101454.69;5019933;28;20520;-86
2023/05/01 04:31:20;;;;;;;10.35;7.00;;;;;;;9.36;94.57;101444.44;5029112;28;20027;-86
2023/05/01 04:33:46;;;;;;;11.88;6.50;;;;;;;9.29;94.70;101442.22;5015725;28;20648;-86
2023/05/01 04:36:12;;;;;;;11.80;6.10;;;;;;;9.37;94.73;101443.25;5029156;28;20072;-86
2023/05/01 04:38:37;;;;;;;9.73;6.85;;;;;;;9.37;95.03;101440.47;5037269;28;20090;-87
2023/05/01 04:41:04;;;;;;;9.98;6.55;;;;;;;9.36;94.92;101436.06;5040072;28;20025;-86
2023/05/01 04:43:30;;;;;;;16.77;6.78;;;;;;;9.23;95.53;101442.84;5015814;28;20037;-86
2023/05/01 04:45:55;;;;;;;11.43;6.72;;;;;;;9.34;95.11;101442.00;5030516;28;20036;-86
2023/05/01 04:48:20;;;;;;;10.15;6.22;;;;;;;9.37;95.10;101440.47;5013756;28;20176;-86
2023/05/01 04:50:46;;;;;;;12.07;6.35;;;;;;;9.35;95.41;101440.00;5025322;28;20013;-86
2023/05/01 04:53:11;;;;;;;12.73;6.65;;;;;;;9.38;95.44;101436.47;5033972;28;20139;-86
2023/05/01 04:55:37;;;;;;;14.10;6.43;;;;;;;9.30;96.00;101435.47;5034325;28;20037;-86
2023/05/01 04:58:05;;;;;;;13.02;6.80;;;;;;;9.36;95.19;101441.63;5037088;28;20405;-87
2023/05/01 05:00:31;;;;;;;11.88;7.30;;;;;;;9.43;94.90;101441.03;5020577;28;20185;-86
2023/05/01 05:02:56;;;;;;;8.25;6.20;;;;;;;9.38;95.48;101436.47;5016859;28;20442;-86
2023/05/01 05:05:21;;;;;;;13.35;5.85;;;;;;;9.42;95.19;101433.78;5034509;28;20040;-87
2023/05/01 05:07:47;;;;;;;10.32;6.13;;;;;;;9.39;95.29;101446.50;5022836;28;20040;-87
2023/05/01 05:10:12;;;;;;;10.55;5.97;;;;;;;9.36;95.95;101441.63;5020821;28;20481;-87
2023/05/01 05:12:38;;;;;;;12.85;7.28;;;;;;;9.30;96.36;101432.69;5036090;28;20057;-87
2023/05/01 05:15:04;;;;;;;12.32;6.93;;;;;;;9.43;95.84;101438.22;5036557;28;20116;-86
2023/05/01 05:17:29;;;;;;;16.90;6.88;;;;;;;9.43;95.85;101433.44;5016451;28;20036;-87
2023/05/01 05:19:55;;;;;;;9.55;6.90;;;;;;;9.40;95.27;101431.34;5013553;28;22320;-86
2023/05/01 05:22:20;;;;;;;8.55;6.32;;;;;;;9.51;95.31;101449.25;5020652;28;20125;-86
2023/05/01 05:24:46;;;;;;;13.02;7.43;;;;;;;9.38;97.45;101441.25;5008322;28;20500;-87
2023/05/01 05:27:11;;;;;;;11.20;6.05;;;;;;;9.57;94.59;101442.22;5013303;28;20087;-87
2023/05/01 05:29:36;;;;;;;15.60;7.25;;;;;;;9.54;95.27;101444.91;5009983;28;20029;-87
2023/05/01 05:32:02;;;;;;;12.85;6.90;;;;;;;9.60;95.83;101445.47;5020429;28;20021;-86
2023/05/01 05:34:28;;;;;;;9.88;5.68;;;;;;;9.52;95.18;101445.25;5009053;28;20051;-87
2023/05/01 05:36:53;;;;;;;10.35;5.78;;;;;;;9.75;94.18;101441.88;5033479;28;20025;-87
2023/05/01 05:39:22;;;;;;;10.48;5.85;;;;;;;9.77;94.72;101439.56;5026700;28;20536;-87
2023/05/01 05:41:48;;;;;;;20.55;6.90;;;;;;;9.71;95.33;101443.78;5023143;28;20040;-87
2023/05/01 05:44:14;;;;;;;11.23;6.35;;;;;;;9.67;95.78;101434.47;5024331;28;20029;-87
2023/05/01 05:46:39;;;;;;;11.25;5.95;;;;;;;9.76;94.70;101435.13;5023500;28;20041;-88
2023/05/01 05:49:04;;;;;;;10.75;5.47;;;;;;;9.88;93.60;101423.84;5023895;28;20024;-87
2023/05/01 05:51:30;;;;;;;11.85;6.20;;;;;;;9.76;95.87;101426.72;5029509;28;20653;-86
2023/05/01 05:53:55;;;;;;;9.65;5.38;;;;;;;9.87;93.91;101430.63;5022535;28;20115;-87
2023/05/01 05:56:21;;;;;;;11.13;6.55;;;;;;;9.88;95.55;101426.66;5027713;28;20074;-87
2023/05/01 05:58:50;;;;;;;11.57;7.10;;;;;;;9.83;96.74;101420.53;5041903;28;20104;-87
2023/05/01 06:01:16;;;;;;;10.52;6.50;;;;;;;9.94;94.87;101428.00;5037532;28;20231;-87
2023/05/01 06:03:42;;;;;;;10.55;5.80;;;;;;;10.02;94.02;101436.59;5027373;28;20028;-87
2023/05/01 06:06:07;;;;;;;9.93;5.65;;;;;;;9.94;93.17;101433.59;5040494;28;20029;-87
2023/05/01 06:08:35;;;;;;;15.02;6.55;;;;;;;9.84;94.54;101430.53;5026929;28;20416;-87
2023/05/01 06:11:00;;;;;;;12.52;6.20;;;;;;;9.82;92.98;101419.69;5018991;28;20491;-87
2023/05/01 06:13:26;;;;;;;13.65;5.88;;;;;;;9.86;92.37;101422.59;5023020;28;20020;-87
2023/05/01 06:15:52;;;;;;;13.38;5.90;;;;;;;10.00;91.00;101419.38;5014028;28;20187;-87
2023/05/01 06:18:18;;;;;;;9.82;5.93;;;;;;;9.83;91.04;101420.53;5036767;28;20052;-88
2023/05/01 06:20:43;;;;;;;12.00;5.65;;;;;;;9.88;90.71;101426.66;5023166;28;20481;-87
2023/05/01 06:23:09;;;;;;;13.80;6.22;;;;;;;9.84;90.37;101422.94;5026093;28;21461;-87
2023/05/01 06:25:34;;;;;;;11.48;5.65;;;;;;;10.00;90.52;101424.97;5012372;28;20420;-87
2023/05/01 06:28:00;;;;;;;9.38;4.60;;;;;;;9.98;90.74;101405.75;5029261;28;20025;-87
2023/05/01 06:30:25;;;;;;;11.88;5.63;;;;;;;10.01;90.27;101407.00;5025182;28;20093;-87
2023/05/01 06:32:50;;;;;;;12.05;6.57;;;;;;;10.10;90.26;101413.25;5027480;28;20025;-87
2023/05/01 06:35:16;;;;;;;10.40;5.25;;;;;;;10.09;90.00;101415.19;5044426;28;20029;-86
2023/05/01 06:37:41;;;;;;;13.70;6.55;;;;;;;10.13;90.75;101418.09;5037140;28;20454;-86
2023/05/01 06:40:08;;;;;;;13.10;6.88;;;;;;;9.93;90.93;101415.22;5023238;28;20035;-87
2023/05/01 06:42:38;;;;;;;9.25;6.40;;;;;;;9.92;90.33;101408.00;5038262;28;20116;-87
2023/05/01 06:45:05;;;;;;;9.38;5.35;;;;;;;9.90;90.30;101418.72;5025158;28;20044;-86
2023/05/01 06:47:30;;;;;;;11.35;7.00;;;;;;;10.01;89.81;101412.59;5041560;28;20040;-87
2023/05/01 06:49:55;;;;;;;11.23;6.70;;;;;;;10.13;90.88;101409.69;5043954;28;20029;-87
2023/05/01 06:52:21;;;;;;;15.52;6.90;;;;;;;10.10;90.61;101399.25;5025146;28;20025;-87
2023/05/01 06:54:46;;;;;;;14.25;7.10;;;;;;;10.10;91.31;101396.47;5041223;28;20024;-87
2023/05/01 06:57:12;;;;;;;15.32;6.82;;;;;;;10.16;90.65;101401.41;5019103;28;20056;-86
2023/05/01 06:59:37;;;;;;;13.13;6.32;;;;;;;10.17;91.61;101410.59;5036177;28;20111;-87
2023/05/01 07:02:02;;;;;;;15.32;6.30;;;;;;;10.11;91.94;101410.06;5016187;28;20480;-87
2023/05/01 07:04:28;;;;;;;14.02;6.25;;;;;;;10.06;92.14;101412.34;5021103;28;20021;-87
2023/05/01 07:06:53;;;;;;;11.68;6.85;;;;;;;10.08;91.72;101405.19;5014694;28;20045;-87
2023/05/01 07:09:19;;;;;;;10.65;6.55;;;;;;;10.16;90.96;101412.59;5018172;28;20037;-87
2023/05/01 07:11:44;;;;;;;11.82;6.25;;;;;;;10.16;91.26;101400.56;5037969;28;20053;-87
2023/05/01 07:14:09;;;;;;;11.13;6.05;;;;;;;10.27;91.00;101407.25;5036448;28;20483;-87
2023/05/01 07:16:35;;;;;;;19.38;7.20;;;;;;;10.26;90.46;101405.63;5010533;28;20058;-87
2023/05/01 07:19:00;;;;;;;10.98;6.93;;;;;;;10.36;90.02;101393.91;5029340;28;20557;-87
2023/05/01 07:21:26;;;;;;;11.70;6.78;;;;;;;10.32;89.92;101398.59;5022666;28;20060;-87
2023/05/01 07:23:51;;;;;;;13.95;7.30;;;;;;;10.42;90.54;101393.66;5028424;28;20091;-88
2023/05/01 07:26:17;;;;;;;13.75;7.53;;;;;;;10.55;89.80;101400.72;5024184;28;20021;-87
2023/05/01 07:28:42;;;;;;;15.60;7.38;;;;;;;10.54;89.37;101399.09;5029891;28;20561;-88
2023/05/01 07:31:11;;;;;;;12.52;7.07;;;;;;;10.61;88.82;101393.69;5019294;28;20025;-87
2023/05/01 07:33:36;;;;;;;12.23;6.45;;;;;;;10.67;89.08;101397.81;5024274;28;20028;-87
2023/05/01 07:36:03;;;;;;;15.15;7.28;;;;;;;10.69;89.15;101397.44;5030246;28;20157;-87
2023/05/01 07:38:28;;;;;;;9.45;5.88;;;;;;;10.67;88.87;101397.00;5043040;28;20511;-88
2023/05/01 07:40:55;;;;;;;11.38;7.75;;;;;;;10.73;87.77;101396.34;5022420;28;20029;-87
2023/05/01 07:43:21;;;;;;;17.48;7.28;;;;;;;10.82;87.67;101395.34;5022861;28;20431;-87
2023/05/01 07:46:13;;;;;;;15.80;6.65;;;;;;;11.02;88.36;101402.53;5017670;28;20032;-88
2023/05/01 07:48:38;;;;;;;11.88;6.90;;;;;;;10.99;88.23;101397.69;5009034;28;20374;-88
2023/05/01 07:51:04;;;;;;;12.82;5.50;;;;;;;10.77;86.02;101396.41;5038523;28;20017;-88
2023/05/01 07:53:29;;;;;;;13.43;7.05;;;;;;;10.88;86.03;101397.47;5020712;28;20033;-87
2023/05/01 07:56:05;;;;;;;12.60;6.53;;;;;;;11.06;85.92;101400.63;5039534;28;20511;-88
2023/05/01 07:58:31;;;;;;;13.73;7.18;;;;;;;11.04;86.30;101403.00;5013731;28;20093;-87
2023/05/01 08:00:56;;;;;;;17.80;6.38;;;;;;;11.15;87.12;101401.25;5019241;28;20039;-88
2023/05/01 08:03:21;;;;;;;11.77;6.85;;;;;;;11.35;85.98;101395.63;5017510;28;20032;-87
2023/05/01 08:05:47;;;;;;;11.40;6.40;;;;;;;11.44;85.34;101403.78;5033852;28;20370;-79
2023/05/01 08:08:18;;;;;;;12.27;6.78;;;;;;;11.56;87.16;101404.44;5021264;28;20583;-84
2023/05/01 08:10:43;;;;;;;10.63;6.65;;;;;;;11.62;85.31;101395.72;5036822;28;20033;-84
2023/05/01 08:13:08;;;;;;;13.32;6.47;;;;;;;11.80;85.57;101396.84;5008997;28;20044;-84
2023/05/01 08:15:36;;;;;;;15.25;6.68;;;;;;;11.55;85.62;101385.16;5012354;28;21352;-84
2023/05/01 08:18:02;;;;;;;10.90;6.68;;;;;;;11.67;88.18;101392.59;5021858;28;20179;-84
2023/05/01 08:20:27;;;;;;;11.75;7.03;;;;;;;11.87;85.90;101394.16;5034600;28;20797;-85
2023/05/01 08:22:52;;;;;;;12.40;6.90;;;;;;;11.92;85.57;101396.69;5028644;28;21340;-84
2023/05/01 08:25:18;;;;;;;13.80;6.90;;;;;;;12.07;86.10;101399.72;5020370;28;20129;-84
2023/05/01 08:27:43;;;;;;;16.40;6.68;;;;;;;12.12;85.24;101403.03;5027081;28;20029;-84
2023/05/01 08:30:09;;;;;;;40.42;8.38;;;;;;;13.26;89.38;101393.75;5035080;28;20024;-78
2023/05/01 08:32:34;;;;;;;16.63;5.15;;;;;;;15.38;77.68;101396.16;5040854;28;20030;-79
2023/05/01 08:35:00;;;;;;;21.83;5.35;;;;;;;15.60;75.28;101397.00;5011777;28;20021;-80
2023/05/01 08:37:25;;;;;;;32.80;7.32;;;;;;;15.78;73.19;101400.72;5020703;28;20389;-81
2023/05/01 08:39:51;;;;;;;15.00;5.72;;;;;;;15.78;72.64;101391.44;5026753;28;20048;-80
2023/05/01 08:42:17;;;;;;;11.10;4.22;;;;;;;15.78;72.13;101395.06;5030748;28;20174;-81
2023/05/01 08:44:42;;;;;;;12.13;5.80;;;;;;;14.19;74.75;101391.91;5038330;28;20420;-93
2023/05/01 08:47:15;;;;;;;15.32;7.47;;;;;;;13.35;75.68;101391.50;5034403;28;20021;-90
2023/05/01 08:49:41;;;;;;;13.43;6.75;;;;;;;13.46;77.45;101391.63;5041803;28;20400;-91
2023/05/01 08:52:07;;;;;;;10.68;6.00;;;;;;;13.48;76.30;101394.84;5040956;28;20043;-90
2023/05/01 08:54:35;;;;;;;11.32;6.50;;;;;;;13.20;77.71;101393.31;5039037;28;20029;-91
2023/05/01 08:57:04;;;;;;;11.05;6.53;;;;;;;13.12;77.89;101392.41;5033010;28;20343;-90
2023/05/01 08:59:34;;;;;;;11.90;6.97;;;;;;;13.15;79.11;101400.06;5041594;28;20442;-90
2023/05/01 09:02:04;;;;;;;10.80;6.95;;;;;;;12.97;79.43;101394.22;5017994;28;20175;-90
2023/05/01 09:04:35;;;;;;;13.05;6.50;;;;;;;13.12;78.37;101389.59;5024512;28;20025;-90
2023/05/01 09:07:02;;;;;;;8.35;6.03;;;;;;;13.04;76.71;101401.13;5027548;28;20029;-90
2023/05/01 09:09:28;;;;;;;11.02;6.18;;;;;;;13.09;75.99;101393.19;5027168;28;20587;-90
2023/05/01 09:11:56;;;;;;;12.63;7.13;;;;;;;13.23;74.73;101398.97;5041856;28;20075;-90
2023/05/01 09:14:22;;;;;;;13.80;6.65;;;;;;;13.25;74.12;101395.78;5018935;28;20080;-90
2023/05/01 09:16:47;;;;;;;13.63;5.78;;;;;;;13.29;74.20;101390.22;5027681;28;20398;-90
2023/05/01 09:19:13;;;;;;;16.65;7.45;;;;;;;13.33;74.93;101391.09;5046246;28;20039;-90
2023/05/01 09:21:39;;;;;;;11.90;6.57;;;;;;;13.32;73.70;101400.69;5050797;28;20112;-79
2023/05/01 09:24:04;;;;;;;10.50;5.18;;;;;;;13.38;71.54;101393.53;5024367;28;20036;-78
2023/05/01 09:26:33;;;;;;;15.13;4.75;;;;;;;13.87;78.23;101402.88;5049881;28;20041;-77
2023/05/01 09:28:59;;;;;;;11.02;6.35;;;;;;;13.89;79.00;101392.03;5041280;28;20021;-77
2023/05/01 09:31:31;;;;;;;13.80;5.75;;;;;;;13.76;77.00;101402.75;5020625;28;20468;-77
2023/05/01 09:34:02;;;;;;;9.23;4.53;;;;;;;14.13;75.63;101390.66;5027929;28;20025;-77
2023/05/01 09:36:30;;;;;;;7.43;4.40;;;;;;;14.26;73.35;101394.75;5039463;28;21035;-77
2023/05/01 09:38:56;;;;;;;10.27;6.10;;;;;;;14.63;76.56;101399.44;5038334;28;20037;-86
2023/05/01 09:41:22;;;;;;;7.93;4.95;;;;;;;15.00;72.30;101396.44;5017741;28;20580;-86
2023/05/01 09:43:52;;;;;;;10.07;5.75;;;;;;;14.27;73.33;101389.94;5017384;28;20025;-86
2023/05/01 09:46:19;;;;;;;14.68;5.88;;;;;;;14.26;73.49;101391.94;5020295;28;20485;-86
2023/05/01 09:48:56;;;;;;;12.88;5.95;;;;;;;14.52;73.84;101387.28;5015502;28;20025;-77
2023/05/01 09:51:24;;;;;;;12.50;5.32;;;;;;;14.19;71.53;101386.28;5021652;28;20016;-77
2023/05/01 09:53:51;;;;;;;11.20;5.80;;;;;;;14.27;77.51;101393.53;5011303;28;20511;-78
2023/05/01 09:56:17;;;;;;;10.43;5.85;;;;;;;14.19;74.78;101384.25;5043644;28;20025;-78
2023/05/01 09:58:43;;;;;;;8.38;4.07;;;;;;;14.49;76.69;101382.44;5049084;28;20028;-77
2023/05/01 10:01:09;;;;;;;8.38;4.22;;;;;;;15.92;71.08;101390.66;5026360;28;20067;-78
2023/05/01 10:03:34;;;;;;;7.90;4.50;;;;;;;15.82;69.13;101400.72;5036028;28;20128;-77
2023/05/01 10:35:56;;;;;;;10.85;5.82;;;;;;;15.21;72.40;101394.91;5083072;27;1276314;-88
2023/05/01 10:38:24;;;;;;;9.65;5.18;;;;;;;15.07;72.33;101384.38;5095507;28;20503;-87
2023/05/01 10:40:50;;;;;;;6.55;5.07;;;;;;;15.27;69.95;101387.69;5090645;28;20023;-87
2023/05/01 10:43:29;;;;;;;8.50;5.47;;;;;;;15.43;74.07;101395.78;5090524;28;20100;-87
2023/05/01 10:46:07;;;;;;;9.85;6.60;;;;;;;15.64;70.33;101384.56;5091701;28;20035;-87
2023/05/01 10:48:42;;;;;;;7.75;4.80;;;;;;;15.84;70.27;101392.66;5094223;28;20030;-87
2023/05/01 10:51:10;;;;;;;9.52;5.25;;;;;;;16.03;70.13;101388.63;5093561;28;20519;-89
2023/05/01 10:53:36;;;;;;;9.52;6.00;;;;;;;15.94;68.78;101396.69;5100244;28;20028;-87
2023/05/01 10:56:04;;;;;;;8.80;4.70;;;;;;;16.10;71.51;101394.28;5091541;28;20115;-87
2023/05/01 10:58:36;;;;;;;10.27;5.32;;;;;;;16.09;68.42;101389.06;5101896;28;20034;-88
2023/05/01 11:01:27;;;;;;;9.15;4.75;;;;;;;16.32;69.20;101395.09;5086769;28;20024;-87
2023/05/01 11:03:58;;;;;;;11.95;5.40;;;;;;;16.52;68.11;101386.16;5088328;28;20046;-87
2023/05/01 11:06:24;;;;;;;9.55;6.30;;;;;;;16.39;66.50;101383.75;5092505;28;20039;-88
2023/05/01 11:08:50;;;;;;;11.23;5.32;;;;;;;16.38;68.05;101390.63;5097153;28;20111;-88
2023/05/01 11:11:20;;;;;;;8.27;4.28;;;;;;;16.48;67.44;101391.03;5091184;28;20244;-86
2023/05/01 11:14:04;;;;;;;7.72;4.25;;;;;;;16.58;64.67;101385.34;5096447;28;20074;-88
2023/05/01 11:16:40;;;;;;;11.23;5.72;;;;;;;16.79;64.33;101384.47;5087680;28;20031;-88
2023/05/01 11:19:10;;;;;;;10.82;4.88;;;;;;;16.61;63.89;101378.88;5075839;28;20153;-86
2023/05/01 11:21:37;;;;;;;8.48;5.05;;;;;;;16.82;63.60;101378.06;5072660;28;20024;-88
2023/05/01 11:24:04;;;;;;;8.70;5.18;;;;;;;16.69;62.92;101384.50;5079645;28;20034;-86
2023/05/01 11:26:30;;;;;;;10.05;5.47;;;;;;;16.84;63.15;101371.97;5073941;28;20028;-88
2023/05/01 11:29:00;;;;;;;8.25;4.72;;;;;;;17.36;62.42;101374.16;5093228;27;20028;-88
2023/05/01 11:31:27;;;;;;;7.78;4.35;;;;;;;17.09;61.66;101369.03;5075084;28;20483;-88
2023/05/01 11:33:55;;;;;;;8.88;4.72;;;;;;;17.05;62.82;101373.91;5080615;28;20134;-89
2023/05/01 11:36:21;;;;;;;8.57;4.13;;;;;;;17.05;66.29;101362.59;5068078;28;20044;-89
2023/05/01 11:38:57;;;;;;;8.27;4.47;;;;;;;17.28;65.89;101368.53;5073385;28;20031;-89
2023/05/01 11:41:24;;;;;;;9.90;4.35;;;;;;;17.15;67.39;101361.75;5083926;28;20135;-88
2023/05/01 11:43:52;;;;;;;5.75;4.13;;;;;;;17.54;66.43;101360.72;5099130;28;20027;-89
2023/05/01 11:46:28;;;;;;;7.80;4.68;;;;;;;17.19;62.19;101361.72;5080425;28;20481;-89
2023/05/01 11:48:55;;;;;;;8.90;4.07;;;;;;;17.41;63.16;101363.22;5079625;28;20031;-89
2023/05/01 11:51:21;;;;;;;8.32;4.43;;;;;;;17.53;61.10;101359.09;5069208;28;20101;-88
2023/05/01 11:54:05;;;;;;;9.35;4.28;;;;;;;17.22;60.69;101361.72;5082688;28;20035;-89
2023/05/01 11:56:32;;;;;;;7.10;3.88;;;;;;;17.39;61.00;101356.34;5056447;28;20024;-88